sensor_id;sensor_type;location;lat;lon;timestamp;P1;durP1;ratioP1;P2;durP2;ratioP2
68886;SDS011;55925;51.764;6.402;2023-07-02T00:00:23;9.18;;;4.90;;
68886;SDS011;55925;51.764;6.402;2023-07-02T00:02:49;9.98;;;4.53;;
68886;SDS011;55925;51.764;6.402;2023-07-02T00:05:15;9.60;;;4.72;;
68886;SDS011;55925;51.764;6.402;2023-07-02T00:07:42;13.48;;;4.65;;
68886;SDS011;55925;51.764;6.402;2023-07-02T00:10:08;9.23;;;4.53;;
68886;SDS011;55925;51.764;6.402;2023-07-02T00:12:35;13.45;;;5.05;;
68886;SDS011;55925;51.764;6.402;2023-07-02T00:15:02;11.43;;;5.20;;
68886;SDS011;55925;51.764;6.402;2023-07-02T00:17:28;12.80;;;5.05;;
68886;SDS011;55925;51.764;6.402;2023-07-02T00:19:54;15.52;;;6.13;;
68886;SDS011;55925;51.764;6.402;2023-07-02T00:22:20;12.43;;;4.82;;
68886;SDS011;55925;51.764;6.402;2023-07-02T00:24:46;9.73;;;4.82;;
68886;SDS011;55925;51.764;6.402;2023-07-02T00:27:12;14.32;;;5.47;;
68886;SDS011;55925;51.764;6.402;2023-07-02T00:29:38;11.30;;;5.15;;
68886;SDS011;55925;51.764;6.402;2023-07-02T00:32:04;11.95;;;5.60;;
68886;SDS011;55925;51.764;6.402;2023-07-02T00:34:31;11.65;;;5.65;;
68886;SDS011;55925;51.764;6.402;2023-07-02T00:36:57;11.55;;;5.43;;
68886;SDS011;55925;51.764;6.402;2023-07-02T00:39:23;9.90;;;4.65;;
68886;SDS011;55925;51.764;6.402;2023-07-02T00:41:49;15.75;;;5.60;;
68886;SDS011;55925;51.764;6.402;2023-07-02T00:44:15;12.48;;;4.90;;
68886;SDS011;55925;51.764;6.402;2023-07-02T00:46:42;10.60;;;5.22;;
68886;SDS011;55925;51.764;6.402;2023-07-02T00:49:08;15.27;;;5.68;;
68886;SDS011;55925;51.764;6.402;2023-07-02T00:51:35;12.82;;;4.78;;
68886;SDS011;55925;51.764;6.402;2023-07-02T00:54:02;11.77;;;5.65;;
68886;SDS011;55925;51.764;6.402;2023-07-02T00:56:28;13.68;;;5.95;;
68886;SDS011;55925;51.764;6.402;2023-07-02T00:58:54;11.68;;;5.32;;
68886;SDS011;55925;51.764;6.402;2023-07-02T01:01:23;12.18;;;5.63;;
68886;SDS011;55925;51.764;6.402;2023-07-02T01:03:53;12.13;;;4.70;;
68886;SDS011;55925;51.764;6.402;2023-07-02T01:06:28;13.02;;;5.70;;
68886;SDS011;55925;51.764;6.402;2023-07-02T01:08:55;12.82;;;5.35;;
68886;SDS011;55925;51.764;6.402;2023-07-02T01:11:21;14.57;;;5.00;;
68886;SDS011;55925;51.764;6.402;2023-07-02T01:13:48;12.35;;;5.00;;
68886;SDS011;55925;51.764;6.402;2023-07-02T01:16:14;11.90;;;5.10;;
68886;SDS011;55925;51.764;6.402;2023-07-02T01:18:40;12.73;;;5.60;;
68886;SDS011;55925;51.764;6.402;2023-07-02T01:21:07;14.70;;;5.32;;
68886;SDS011;55925;51.764;6.402;2023-07-02T01:23:33;13.68;;;5.70;;
68886;SDS011;55925;51.764;6.402;2023-07-02T01:25:59;11.00;;;4.47;;
68886;SDS011;55925;51.764;6.402;2023-07-02T01:28:33;10.98;;;4.82;;
68886;SDS011;55925;51.764;6.402;2023-07-02T01:31:00;12.65;;;5.50;;
68886;SDS011;55925;51.764;6.402;2023-07-02T01:33:26;14.90;;;5.63;;
68886;SDS011;55925;51.764;6.402;2023-07-02T01:35:52;11.98;;;5.15;;
68886;SDS011;55925;51.764;6.402;2023-07-02T01:38:18;13.93;;;5.00;;
68886;SDS011;55925;51.764;6.402;2023-07-02T01:40:44;12.93;;;5.10;;
68886;SDS011;55925;51.764;6.402;2023-07-02T01:43:10;13.20;;;5.07;;
68886;SDS011;55925;51.764;6.402;2023-07-02T01:45:37;17.88;;;6.35;;
68886;SDS011;55925;51.764;6.402;2023-07-02T01:48:03;14.10;;;6.22;;
68886;SDS011;55925;51.764;6.402;2023-07-02T01:50:29;15.82;;;5.78;;
68886;SDS011;55925;51.764;6.402;2023-07-02T01:52:55;13.15;;;6.35;;
68886;SDS011;55925;51.764;6.402;2023-07-02T01:55:21;16.45;;;5.95;;
68886;SDS011;55925;51.764;6.402;2023-07-02T01:57:47;17.75;;;6.10;;
68886;SDS011;55925;51.764;6.402;2023-07-02T02:00:13;17.50;;;6.32;;
68886;SDS011;55925;51.764;6.402;2023-07-02T02:02:39;16.90;;;5.88;;
68886;SDS011;55925;51.764;6.402;2023-07-02T02:05:05;15.75;;;6.95;;
68886;SDS011;55925;51.764;6.402;2023-07-02T02:07:32;16.17;;;7.15;;
68886;SDS011;55925;51.764;6.402;2023-07-02T02:10:00;16.73;;;5.78;;
68886;SDS011;55925;51.764;6.402;2023-07-02T02:12:26;14.80;;;5.70;;
68886;SDS011;55925;51.764;6.402;2023-07-02T02:14:53;15.60;;;5.38;;
68886;SDS011;55925;51.764;6.402;2023-07-02T02:17:19;12.68;;;4.55;;
68886;SDS011;55925;51.764;6.402;2023-07-02T02:19:45;19.33;;;5.53;;
68886;SDS011;55925;51.764;6.402;2023-07-02T02:22:11;11.55;;;5.60;;
68886;SDS011;55925;51.764;6.402;2023-07-02T02:24:37;16.02;;;4.95;;
68886;SDS011;55925;51.764;6.402;2023-07-02T02:27:03;12.75;;;4.72;;
68886;SDS011;55925;51.764;6.402;2023-07-02T02:29:30;13.05;;;4.85;;
68886;SDS011;55925;51.764;6.402;2023-07-02T02:31:56;12.32;;;4.68;;
68886;SDS011;55925;51.764;6.402;2023-07-02T02:34:22;13.30;;;4.80;;
68886;SDS011;55925;51.764;6.402;2023-07-02T02:36:48;15.05;;;5.18;;
68886;SDS011;55925;51.764;6.402;2023-07-02T02:39:14;18.55;;;5.13;;
68886;SDS011;55925;51.764;6.402;2023-07-02T02:41:40;13.73;;;4.95;;
68886;SDS011;55925;51.764;6.402;2023-07-02T02:44:07;16.02;;;5.10;;
68886;SDS011;55925;51.764;6.402;2023-07-02T02:46:33;16.73;;;5.55;;
68886;SDS011;55925;51.764;6.402;2023-07-02T02:48:59;13.10;;;5.03;;
68886;SDS011;55925;51.764;6.402;2023-07-02T02:51:25;14.27;;;6.13;;
68886;SDS011;55925;51.764;6.402;2023-07-02T02:53:51;16.42;;;5.63;;
68886;SDS011;55925;51.764;6.402;2023-07-02T02:56:17;13.13;;;5.00;;
68886;SDS011;55925;51.764;6.402;2023-07-02T02:58:43;14.38;;;5.03;;
68886;SDS011;55925;51.764;6.402;2023-07-02T03:01:10;12.70;;;4.93;;
68886;SDS011;55925;51.764;6.402;2023-07-02T03:03:39;11.05;;;4.85;;
68886;SDS011;55925;51.764;6.402;2023-07-02T03:06:19;15.02;;;5.57;;
68886;SDS011;55925;51.764;6.402;2023-07-02T03:08:45;17.38;;;6.00;;
68886;SDS011;55925;51.764;6.402;2023-07-02T03:11:11;14.07;;;5.70;;
68886;SDS011;55925;51.764;6.402;2023-07-02T03:13:37;15.57;;;5.72;;
68886;SDS011;55925;51.764;6.402;2023-07-02T03:16:03;15.52;;;5.45;;
68886;SDS011;55925;51.764;6.402;2023-07-02T03:18:29;15.13;;;5.13;;
68886;SDS011;55925;51.764;6.402;2023-07-02T03:20:55;16.20;;;5.78;;
68886;SDS011;55925;51.764;6.402;2023-07-02T03:23:21;11.32;;;5.10;;
68886;SDS011;55925;51.764;6.402;2023-07-02T03:25:47;16.80;;;5.40;;
68886;SDS011;55925;51.764;6.402;2023-07-02T03:28:13;13.52;;;5.45;;
68886;SDS011;55925;51.764;6.402;2023-07-02T03:30:39;15.35;;;5.38;;
68886;SDS011;55925;51.764;6.402;2023-07-02T03:33:05;14.52;;;5.97;;
68886;SDS011;55925;51.764;6.402;2023-07-02T03:35:31;14.57;;;5.63;;
68886;SDS011;55925;51.764;6.402;2023-07-02T03:37:57;15.52;;;6.30;;
68886;SDS011;55925;51.764;6.402;2023-07-02T03:40:23;13.85;;;4.93;;
68886;SDS011;55925;51.764;6.402;2023-07-02T03:42:49;11.13;;;4.63;;
68886;SDS011;55925;51.764;6.402;2023-07-02T03:45:15;13.75;;;5.28;;
68886;SDS011;55925;51.764;6.402;2023-07-02T03:47:41;14.95;;;5.15;;
68886;SDS011;55925;51.764;6.402;2023-07-02T03:50:08;13.50;;;4.63;;
68886;SDS011;55925;51.764;6.402;2023-07-02T03:52:35;15.10;;;5.18;;
68886;SDS011;55925;51.764;6.402;2023-07-02T03:55:01;13.32;;;5.03;;
68886;SDS011;55925;51.764;6.402;2023-07-02T03:57:27;13.90;;;5.13;;
68886;SDS011;55925;51.764;6.402;2023-07-02T03:59:53;13.50;;;4.88;;
68886;SDS011;55925;51.764;6.402;2023-07-02T04:02:19;13.48;;;5.20;;
68886;SDS011;55925;51.764;6.402;2023-07-02T04:04:45;14.70;;;4.95;;
68886;SDS011;55925;51.764;6.402;2023-07-02T04:07:11;13.75;;;5.78;;
68886;SDS011;55925;51.764;6.402;2023-07-02T04:09:37;12.60;;;4.75;;
68886;SDS011;55925;51.764;6.402;2023-07-02T04:12:05;12.00;;;4.78;;
68886;SDS011;55925;51.764;6.402;2023-07-02T04:14:31;17.20;;;5.40;;
68886;SDS011;55925;51.764;6.402;2023-07-02T04:16:57;12.13;;;5.35;;
68886;SDS011;55925;51.764;6.402;2023-07-02T04:19:23;16.23;;;5.82;;
68886;SDS011;55925;51.764;6.402;2023-07-02T04:21:49;12.40;;;4.80;;
68886;SDS011;55925;51.764;6.402;2023-07-02T04:24:15;18.92;;;6.53;;
68886;SDS011;55925;51.764;6.402;2023-07-02T04:26:44;18.15;;;6.35;;
68886;SDS011;55925;51.764;6.402;2023-07-02T04:29:10;18.73;;;7.20;;
68886;SDS011;55925;51.764;6.402;2023-07-02T04:31:36;19.25;;;6.78;;
68886;SDS011;55925;51.764;6.402;2023-07-02T04:34:03;17.27;;;7.30;;
68886;SDS011;55925;51.764;6.402;2023-07-02T04:36:30;17.88;;;7.40;;
68886;SDS011;55925;51.764;6.402;2023-07-02T04:38:56;19.85;;;8.07;;
68886;SDS011;55925;51.764;6.402;2023-07-02T04:41:22;21.10;;;7.18;;
68886;SDS011;55925;51.764;6.402;2023-07-02T04:43:48;19.10;;;8.20;;
68886;SDS011;55925;51.764;6.402;2023-07-02T04:46:15;18.92;;;7.95;;
68886;SDS011;55925;51.764;6.402;2023-07-02T04:48:43;19.33;;;6.95;;
68886;SDS011;55925;51.764;6.402;2023-07-02T04:51:09;19.73;;;7.65;;
68886;SDS011;55925;51.764;6.402;2023-07-02T04:53:35;18.90;;;7.10;;
68886;SDS011;55925;51.764;6.402;2023-07-02T04:56:02;18.33;;;7.63;;
68886;SDS011;55925;51.764;6.402;2023-07-02T04:58:28;23.77;;;7.68;;
68886;SDS011;55925;51.764;6.402;2023-07-02T05:00:54;26.83;;;9.18;;
68886;SDS011;55925;51.764;6.402;2023-07-02T05:03:20;16.50;;;7.50;;
68886;SDS011;55925;51.764;6.402;2023-07-02T05:05:46;19.77;;;7.32;;
68886;SDS011;55925;51.764;6.402;2023-07-02T05:08:12;18.52;;;7.57;;
68886;SDS011;55925;51.764;6.402;2023-07-02T05:10:38;18.63;;;7.13;;
68886;SDS011;55925;51.764;6.402;2023-07-02T05:13:04;22.27;;;8.07;;
68886;SDS011;55925;51.764;6.402;2023-07-02T05:15:30;19.10;;;7.68;;
68886;SDS011;55925;51.764;6.402;2023-07-02T05:17:56;19.30;;;7.97;;
68886;SDS011;55925;51.764;6.402;2023-07-02T05:20:22;19.50;;;7.60;;
68886;SDS011;55925;51.764;6.402;2023-07-02T05:22:48;16.75;;;7.28;;
68886;SDS011;55925;51.764;6.402;2023-07-02T05:25:14;18.58;;;7.97;;
68886;SDS011;55925;51.764;6.402;2023-07-02T05:27:40;17.48;;;6.88;;
68886;SDS011;55925;51.764;6.402;2023-07-02T05:30:07;18.50;;;7.43;;
68886;SDS011;55925;51.764;6.402;2023-07-02T05:32:33;20.15;;;7.28;;
68886;SDS011;55925;51.764;6.402;2023-07-02T05:35:00;18.75;;;7.30;;
68886;SDS011;55925;51.764;6.402;2023-07-02T05:37:26;20.98;;;7.97;;
68886;SDS011;55925;51.764;6.402;2023-07-02T05:39:52;22.30;;;8.07;;
68886;SDS011;55925;51.764;6.402;2023-07-02T05:42:18;20.58;;;6.78;;
68886;SDS011;55925;51.764;6.402;2023-07-02T05:44:44;13.93;;;7.03;;
68886;SDS011;55925;51.764;6.402;2023-07-02T05:47:10;17.42;;;7.10;;
68886;SDS011;55925;51.764;6.402;2023-07-02T05:49:36;19.88;;;6.78;;
68886;SDS011;55925;51.764;6.402;2023-07-02T05:52:02;19.25;;;7.35;;
68886;SDS011;55925;51.764;6.402;2023-07-02T05:54:28;15.50;;;6.03;;
68886;SDS011;55925;51.764;6.402;2023-07-02T05:56:54;20.20;;;7.07;;
68886;SDS011;55925;51.764;6.402;2023-07-02T05:59:20;22.90;;;7.65;;
68886;SDS011;55925;51.764;6.402;2023-07-02T06:01:46;23.05;;;8.02;;
68886;SDS011;55925;51.764;6.402;2023-07-02T06:04:12;19.23;;;8.07;;
68886;SDS011;55925;51.764;6.402;2023-07-02T06:06:38;21.13;;;7.43;;
68886;SDS011;55925;51.764;6.402;2023-07-02T06:09:04;18.48;;;6.55;;
68886;SDS011;55925;51.764;6.402;2023-07-02T06:11:30;20.58;;;7.50;;
68886;SDS011;55925;51.764;6.402;2023-07-02T06:13:56;20.25;;;7.10;;
68886;SDS011;55925;51.764;6.402;2023-07-02T06:16:22;22.23;;;7.75;;
68886;SDS011;55925;51.764;6.402;2023-07-02T06:18:48;22.73;;;8.32;;
68886;SDS011;55925;51.764;6.402;2023-07-02T06:21:14;18.15;;;6.38;;
68886;SDS011;55925;51.764;6.402;2023-07-02T06:23:41;19.05;;;6.72;;
68886;SDS011;55925;51.764;6.402;2023-07-02T06:26:07;18.10;;;6.88;;
68886;SDS011;55925;51.764;6.402;2023-07-02T06:28:33;22.42;;;7.70;;
68886;SDS011;55925;51.764;6.402;2023-07-02T06:30:59;21.08;;;7.45;;
68886;SDS011;55925;51.764;6.402;2023-07-02T06:33:25;19.95;;;6.50;;
68886;SDS011;55925;51.764;6.402;2023-07-02T06:35:51;19.20;;;6.53;;
68886;SDS011;55925;51.764;6.402;2023-07-02T06:38:17;17.45;;;6.45;;
68886;SDS011;55925;51.764;6.402;2023-07-02T06:40:43;18.65;;;6.70;;
68886;SDS011;55925;51.764;6.402;2023-07-02T06:43:09;15.07;;;5.40;;
68886;SDS011;55925;51.764;6.402;2023-07-02T06:45:35;15.57;;;6.60;;
68886;SDS011;55925;51.764;6.402;2023-07-02T06:48:01;16.58;;;6.40;;
68886;SDS011;55925;51.764;6.402;2023-07-02T06:50:27;16.30;;;6.68;;
68886;SDS011;55925;51.764;6.402;2023-07-02T06:52:53;14.73;;;5.65;;
68886;SDS011;55925;51.764;6.402;2023-07-02T06:55:19;13.18;;;5.75;;
68886;SDS011;55925;51.764;6.402;2023-07-02T06:57:45;15.27;;;5.28;;
68886;SDS011;55925;51.764;6.402;2023-07-02T07:00:12;17.38;;;5.90;;
68886;SDS011;55925;51.764;6.402;2023-07-02T07:02:38;15.35;;;5.32;;
68886;SDS011;55925;51.764;6.402;2023-07-02T07:05:04;15.07;;;5.70;;
68886;SDS011;55925;51.764;6.402;2023-07-02T07:07:31;15.25;;;5.00;;
68886;SDS011;55925;51.764;6.402;2023-07-02T07:09:57;14.48;;;4.90;;
68886;SDS011;55925;51.764;6.402;2023-07-02T07:12:23;16.52;;;4.97;;
68886;SDS011;55925;51.764;6.402;2023-07-02T07:14:49;11.60;;;5.65;;
68886;SDS011;55925;51.764;6.402;2023-07-02T07:17:15;16.20;;;5.60;;
68886;SDS011;55925;51.764;6.402;2023-07-02T07:19:41;13.88;;;5.40;;
68886;SDS011;55925;51.764;6.402;2023-07-02T07:22:07;14.38;;;5.05;;
68886;SDS011;55925;51.764;6.402;2023-07-02T07:24:33;15.07;;;5.78;;
68886;SDS011;55925;51.764;6.402;2023-07-02T07:26:59;15.32;;;4.88;;
68886;SDS011;55925;51.764;6.402;2023-07-02T07:29:25;12.07;;;4.82;;
68886;SDS011;55925;51.764;6.402;2023-07-02T07:31:51;10.60;;;4.55;;
68886;SDS011;55925;51.764;6.402;2023-07-02T07:34:17;14.88;;;4.28;;
68886;SDS011;55925;51.764;6.402;2023-07-02T07:36:43;12.15;;;4.95;;
68886;SDS011;55925;51.764;6.402;2023-07-02T07:39:09;16.67;;;5.40;;
68886;SDS011;55925;51.764;6.402;2023-07-02T07:41:35;14.93;;;4.68;;
68886;SDS011;55925;51.764;6.402;2023-07-02T07:44:01;11.88;;;4.60;;
68886;SDS011;55925;51.764;6.402;2023-07-02T07:46:27;12.80;;;4.53;;
68886;SDS011;55925;51.764;6.402;2023-07-02T07:48:53;11.23;;;4.38;;
68886;SDS011;55925;51.764;6.402;2023-07-02T07:51:19;12.20;;;4.70;;
68886;SDS011;55925;51.764;6.402;2023-07-02T07:53:45;11.13;;;5.00;;
68886;SDS011;55925;51.764;6.402;2023-07-02T07:56:11;11.60;;;4.93;;
68886;SDS011;55925;51.764;6.402;2023-07-02T07:58:37;14.98;;;4.78;;
68886;SDS011;55925;51.764;6.402;2023-07-02T08:01:03;10.80;;;4.38;;
68886;SDS011;55925;51.764;6.402;2023-07-02T08:03:29;12.00;;;4.90;;
68886;SDS011;55925;51.764;6.402;2023-07-02T08:05:55;13.18;;;4.53;;
68886;SDS011;55925;51.764;6.402;2023-07-02T08:08:21;13.55;;;4.85;;
68886;SDS011;55925;51.764;6.402;2023-07-02T08:10:47;11.05;;;4.88;;
68886;SDS011;55925;51.764;6.402;2023-07-02T08:13:14;12.73;;;4.63;;
68886;SDS011;55925;51.764;6.402;2023-07-02T08:15:42;13.27;;;4.28;;
68886;SDS011;55925;51.764;6.402;2023-07-02T08:18:08;10.88;;;4.05;;
68886;SDS011;55925;51.764;6.402;2023-07-02T08:20:36;11.38;;;4.38;;
68886;SDS011;55925;51.764;6.402;2023-07-02T08:23:02;11.95;;;4.90;;
68886;SDS011;55925;51.764;6.402;2023-07-02T08:25:28;12.63;;;3.90;;
68886;SDS011;55925;51.764;6.402;2023-07-02T08:27:55;14.23;;;4.50;;
68886;SDS011;55925;51.764;6.402;2023-07-02T08:30:21;14.07;;;4.75;;
68886;SDS011;55925;51.764;6.402;2023-07-02T08:32:47;11.75;;;4.40;;
68886;SDS011;55925;51.764;6.402;2023-07-02T08:35:13;11.52;;;4.38;;
68886;SDS011;55925;51.764;6.402;2023-07-02T08:37:39;9.65;;;4.03;;
68886;SDS011;55925;51.764;6.402;2023-07-02T08:40:06;13.20;;;4.30;;
68886;SDS011;55925;51.764;6.402;2023-07-02T08:42:32;13.43;;;4.75;;
68886;SDS011;55925;51.764;6.402;2023-07-02T08:44:59;10.32;;;4.35;;
68886;SDS011;55925;51.764;6.402;2023-07-02T08:47:25;8.88;;;4.18;;
68886;SDS011;55925;51.764;6.402;2023-07-02T08:49:52;12.45;;;4.18;;
68886;SDS011;55925;51.764;6.402;2023-07-02T08:52:18;12.48;;;4.70;;
68886;SDS011;55925;51.764;6.402;2023-07-02T08:54:44;14.07;;;4.93;;
68886;SDS011;55925;51.764;6.402;2023-07-02T08:57:10;11.65;;;4.32;;
68886;SDS011;55925;51.764;6.402;2023-07-02T08:59:36;15.60;;;4.63;;
68886;SDS011;55925;51.764;6.402;2023-07-02T09:02:02;11.75;;;4.35;;
68886;SDS011;55925;51.764;6.402;2023-07-02T09:04:29;10.45;;;4.72;;
68886;SDS011;55925;51.764;6.402;2023-07-02T09:07:08;13.65;;;4.57;;
68886;SDS011;55925;51.764;6.402;2023-07-02T09:09:47;11.65;;;4.63;;
68886;SDS011;55925;51.764;6.402;2023-07-02T09:12:27;13.55;;;4.18;;
68886;SDS011;55925;51.764;6.402;2023-07-02T09:14:56;10.10;;;3.78;;
68886;SDS011;55925;51.764;6.402;2023-07-02T09:17:26;11.48;;;4.05;;
68886;SDS011;55925;51.764;6.402;2023-07-02T09:19:54;13.73;;;5.13;;
68886;SDS011;55925;51.764;6.402;2023-07-02T09:22:20;11.32;;;3.97;;
68886;SDS011;55925;51.764;6.402;2023-07-02T09:24:52;12.02;;;4.47;;
68886;SDS011;55925;51.764;6.402;2023-07-02T09:27:40;13.27;;;4.72;;
68886;SDS011;55925;51.764;6.402;2023-07-02T09:32:33;13.23;;;5.05;;
68886;SDS011;55925;51.764;6.402;2023-07-02T09:34:59;12.50;;;4.55;;
68886;SDS011;55925;51.764;6.402;2023-07-02T09:37:25;11.05;;;4.15;;
68886;SDS011;55925;51.764;6.402;2023-07-02T09:39:51;13.50;;;4.90;;
68886;SDS011;55925;51.764;6.402;2023-07-02T09:42:19;8.63;;;3.65;;
68886;SDS011;55925;51.764;6.402;2023-07-02T09:44:46;11.05;;;4.53;;
68886;SDS011;55925;51.764;6.402;2023-07-02T09:47:12;12.98;;;4.25;;
68886;SDS011;55925;51.764;6.402;2023-07-02T09:49:39;13.65;;;4.47;;
68886;SDS011;55925;51.764;6.402;2023-07-02T09:52:06;11.18;;;4.30;;
68886;SDS011;55925;51.764;6.402;2023-07-02T09:54:32;11.35;;;3.97;;
68886;SDS011;55925;51.764;6.402;2023-07-02T09:56:58;12.45;;;4.07;;
68886;SDS011;55925;51.764;6.402;2023-07-02T09:59:25;10.20;;;4.07;;
68886;SDS011;55925;51.764;6.402;2023-07-02T10:01:51;10.13;;;3.97;;
68886;SDS011;55925;51.764;6.402;2023-07-02T10:04:17;13.95;;;4.65;;
68886;SDS011;55925;51.764;6.402;2023-07-02T10:06:44;16.85;;;4.53;;
68886;SDS011;55925;51.764;6.402;2023-07-02T10:09:11;15.98;;;4.63;;
68886;SDS011;55925;51.764;6.402;2023-07-02T10:11:37;9.98;;;4.00;;
68886;SDS011;55925;51.764;6.402;2023-07-02T10:14:03;12.07;;;4.45;;
68886;SDS011;55925;51.764;6.402;2023-07-02T10:16:29;10.82;;;4.47;;
68886;SDS011;55925;51.764;6.402;2023-07-02T10:19:12;11.57;;;3.85;;
68886;SDS011;55925;51.764;6.402;2023-07-02T10:21:38;9.38;;;3.78;;
68886;SDS011;55925;51.764;6.402;2023-07-02T10:24:14;9.23;;;3.90;;
68886;SDS011;55925;51.764;6.402;2023-07-02T10:27:00;13.23;;;4.55;;
68886;SDS011;55925;51.764;6.402;2023-07-02T10:29:26;13.38;;;4.22;;
68886;SDS011;55925;51.764;6.402;2023-07-02T10:31:54;12.02;;;4.30;;
68886;SDS011;55925;51.764;6.402;2023-07-02T10:34:33;10.32;;;4.15;;
68886;SDS011;55925;51.764;6.402;2023-07-02T10:37:00;12.13;;;3.60;;
68886;SDS011;55925;51.764;6.402;2023-07-02T10:39:26;10.52;;;4.25;;
68886;SDS011;55925;51.764;6.402;2023-07-02T10:42:03;10.85;;;4.18;;
68886;SDS011;55925;51.764;6.402;2023-07-02T10:44:29;12.77;;;4.18;;
68886;SDS011;55925;51.764;6.402;2023-07-02T10:46:57;11.48;;;4.22;;
68886;SDS011;55925;51.764;6.402;2023-07-02T10:49:29;11.32;;;3.92;;
68886;SDS011;55925;51.764;6.402;2023-07-02T10:51:59;9.02;;;3.78;;
68886;SDS011;55925;51.764;6.402;2023-07-02T10:54:26;11.55;;;4.45;;
68886;SDS011;55925;51.764;6.402;2023-07-02T10:56:58;11.73;;;4.60;;
68886;SDS011;55925;51.764;6.402;2023-07-02T10:59:24;11.70;;;4.10;;
68886;SDS011;55925;51.764;6.402;2023-07-02T11:01:50;15.10;;;4.70;;
68886;SDS011;55925;51.764;6.402;2023-07-02T11:04:16;13.48;;;4.95;;
68886;SDS011;55925;51.764;6.402;2023-07-02T11:06:42;9.65;;;4.20;;
68886;SDS011;55925;51.764;6.402;2023-07-02T11:09:15;12.15;;;3.70;;
68886;SDS011;55925;51.764;6.402;2023-07-02T11:11:55;9.55;;;4.13;;
68886;SDS011;55925;51.764;6.402;2023-07-02T11:14:32;10.25;;;4.10;;
68886;SDS011;55925;51.764;6.402;2023-07-02T11:16:59;10.93;;;4.32;;
68886;SDS011;55925;51.764;6.402;2023-07-02T11:19:27;9.75;;;4.10;;
68886;SDS011;55925;51.764;6.402;2023-07-02T11:21:54;9.50;;;3.97;;
68886;SDS011;55925;51.764;6.402;2023-07-02T11:24:41;8.38;;;4.10;;
68886;SDS011;55925;51.764;6.402;2023-07-02T11:27:07;9.88;;;4.18;;
68886;SDS011;55925;51.764;6.402;2023-07-02T11:29:33;10.57;;;3.97;;
68886;SDS011;55925;51.764;6.402;2023-07-02T11:32:12;12.73;;;4.68;;
68886;SDS011;55925;51.764;6.402;2023-07-02T11:34:39;13.77;;;4.50;;
68886;SDS011;55925;51.764;6.402;2023-07-02T11:37:05;13.82;;;4.28;;
68886;SDS011;55925;51.764;6.402;2023-07-02T11:39:31;11.85;;;4.20;;
68886;SDS011;55925;51.764;6.402;2023-07-02T11:41:58;12.00;;;4.45;;
68886;SDS011;55925;51.764;6.402;2023-07-02T11:44:24;12.75;;;3.70;;
68886;SDS011;55925;51.764;6.402;2023-07-02T11:46:50;11.48;;;4.82;;
68886;SDS011;55925;51.764;6.402;2023-07-02T11:49:16;11.25;;;4.68;;
68886;SDS011;55925;51.764;6.402;2023-07-02T11:51:42;10.23;;;4.32;;
68886;SDS011;55925;51.764;6.402;2023-07-02T11:54:13;11.48;;;4.32;;
68886;SDS011;55925;51.764;6.402;2023-07-02T11:56:40;12.25;;;4.50;;
68886;SDS011;55925;51.764;6.402;2023-07-02T11:59:07;11.35;;;4.43;;
68886;SDS011;55925;51.764;6.402;2023-07-02T12:01:33;15.27;;;4.97;;
68886;SDS011;55925;51.764;6.402;2023-07-02T12:03:59;13.57;;;4.68;;
68886;SDS011;55925;51.764;6.402;2023-07-02T12:06:25;10.30;;;4.35;;
68886;SDS011;55925;51.764;6.402;2023-07-02T12:08:52;11.38;;;4.45;;
68886;SDS011;55925;51.764;6.402;2023-07-02T12:11:18;11.30;;;4.40;;
68886;SDS011;55925;51.764;6.402;2023-07-02T12:13:43;10.52;;;4.43;;
68886;SDS011;55925;51.764;6.402;2023-07-02T12:16:10;9.05;;;4.18;;
68886;SDS011;55925;51.764;6.402;2023-07-02T12:18:35;8.25;;;4.38;;
68886;SDS011;55925;51.764;6.402;2023-07-02T12:21:02;14.18;;;4.70;;
68886;SDS011;55925;51.764;6.402;2023-07-02T12:23:28;9.68;;;4.53;;
68886;SDS011;55925;51.764;6.402;2023-07-02T12:25:54;10.48;;;4.38;;
68886;SDS011;55925;51.764;6.402;2023-07-02T12:28:20;10.20;;;4.63;;
68886;SDS011;55925;51.764;6.402;2023-07-02T12:30:46;12.88;;;5.00;;
68886;SDS011;55925;51.764;6.402;2023-07-02T12:33:12;10.75;;;4.32;;
68886;SDS011;55925;51.764;6.402;2023-07-02T12:35:38;15.25;;;5.10;;
68886;SDS011;55925;51.764;6.402;2023-07-02T12:38:04;11.55;;;4.57;;
68886;SDS011;55925;51.764;6.402;2023-07-02T12:40:33;13.02;;;5.20;;
68886;SDS011;55925;51.764;6.402;2023-07-02T12:42:59;13.45;;;4.97;;
68886;SDS011;55925;51.764;6.402;2023-07-02T12:45:25;10.50;;;4.63;;
68886;SDS011;55925;51.764;6.402;2023-07-02T12:47:51;11.07;;;5.18;;
68886;SDS011;55925;51.764;6.402;2023-07-02T12:50:17;10.40;;;4.20;;
68886;SDS011;55925;51.764;6.402;2023-07-02T12:52:43;13.82;;;5.35;;
68886;SDS011;55925;51.764;6.402;2023-07-02T12:55:09;10.98;;;4.07;;
68886;SDS011;55925;51.764;6.402;2023-07-02T12:57:35;12.15;;;4.93;;
68886;SDS011;55925;51.764;6.402;2023-07-02T13:00:01;12.65;;;5.10;;
68886;SDS011;55925;51.764;6.402;2023-07-02T13:02:27;10.88;;;4.85;;
68886;SDS011;55925;51.764;6.402;2023-07-02T13:04:53;10.30;;;4.35;;
68886;SDS011;55925;51.764;6.402;2023-07-02T13:07:19;13.02;;;5.03;;
68886;SDS011;55925;51.764;6.402;2023-07-02T13:09:45;14.45;;;4.78;;
68886;SDS011;55925;51.764;6.402;2023-07-02T13:12:11;10.57;;;4.32;;
68886;SDS011;55925;51.764;6.402;2023-07-02T13:14:37;10.10;;;4.68;;
68886;SDS011;55925;51.764;6.402;2023-07-02T13:17:03;11.55;;;4.43;;
68886;SDS011;55925;51.764;6.402;2023-07-02T13:19:30;7.68;;;3.90;;
68886;SDS011;55925;51.764;6.402;2023-07-02T13:21:56;8.70;;;4.10;;
68886;SDS011;55925;51.764;6.402;2023-07-02T13:24:22;7.93;;;3.40;;
68886;SDS011;55925;51.764;6.402;2023-07-02T13:26:48;9.77;;;4.05;;
68886;SDS011;55925;51.764;6.402;2023-07-02T13:29:14;9.63;;;3.70;;
68886;SDS011;55925;51.764;6.402;2023-07-02T13:31:41;9.43;;;4.05;;
68886;SDS011;55925;51.764;6.402;2023-07-02T13:34:07;8.48;;;3.70;;
68886;SDS011;55925;51.764;6.402;2023-07-02T13:36:33;9.20;;;3.78;;
68886;SDS011;55925;51.764;6.402;2023-07-02T13:38:59;9.25;;;3.60;;
68886;SDS011;55925;51.764;6.402;2023-07-02T13:41:25;8.88;;;3.50;;
68886;SDS011;55925;51.764;6.402;2023-07-02T13:43:53;12.15;;;3.40;;
68886;SDS011;55925;51.764;6.402;2023-07-02T13:46:19;8.00;;;3.13;;
68886;SDS011;55925;51.764;6.402;2023-07-02T13:48:45;9.45;;;3.67;;
68886;SDS011;55925;51.764;6.402;2023-07-02T13:51:11;10.70;;;3.60;;
68886;SDS011;55925;51.764;6.402;2023-07-02T13:53:37;8.13;;;3.20;;
68886;SDS011;55925;51.764;6.402;2023-07-02T13:56:03;8.95;;;3.85;;
68886;SDS011;55925;51.764;6.402;2023-07-02T14:01:12;10.70;;;3.35;;
68886;SDS011;55925;51.764;6.402;2023-07-02T14:03:38;7.65;;;3.60;;
68886;SDS011;55925;51.764;6.402;2023-07-02T14:06:04;9.23;;;3.28;;
68886;SDS011;55925;51.764;6.402;2023-07-02T14:08:30;9.40;;;3.50;;
68886;SDS011;55925;51.764;6.402;2023-07-02T14:10:56;8.15;;;3.53;;
68886;SDS011;55925;51.764;6.402;2023-07-02T14:13:22;8.95;;;3.67;;
68886;SDS011;55925;51.764;6.402;2023-07-02T14:15:49;8.00;;;3.15;;
68886;SDS011;55925;51.764;6.402;2023-07-02T14:18:15;8.80;;;3.97;;
68886;SDS011;55925;51.764;6.402;2023-07-02T14:20:41;7.07;;;3.00;;
68886;SDS011;55925;51.764;6.402;2023-07-02T14:23:07;11.88;;;3.72;;
68886;SDS011;55925;51.764;6.402;2023-07-02T14:25:34;7.47;;;3.10;;
68886;SDS011;55925;51.764;6.402;2023-07-02T14:28:00;8.68;;;2.80;;
68886;SDS011;55925;51.764;6.402;2023-07-02T14:30:26;7.40;;;3.10;;
68886;SDS011;55925;51.764;6.402;2023-07-02T14:32:52;7.47;;;3.17;;
68886;SDS011;55925;51.764;6.402;2023-07-02T14:35:18;8.45;;;3.08;;
68886;SDS011;55925;51.764;6.402;2023-07-02T14:37:47;7.22;;;2.80;;